createdAt,value
2022-12-13T00:01:20.677Z,83.75
2022-12-13T00:03:48.583Z,82.27
2022-12-13T00:06:16.154Z,83.50
2022-12-13T00:08:43.677Z,82.01
2022-12-13T00:11:13.817Z,80.60
2022-12-13T00:13:43.683Z,82.13
2022-12-13T00:16:13.468Z,82.13
2022-12-13T00:18:41.285Z,82.27
2022-12-13T00:21:09.941Z,81.17
2022-12-13T00:23:37.468Z,79.36
2022-12-13T00:26:05.303Z,82.70
2022-12-13T00:28:33.355Z,84.32
2022-12-13T00:31:26.056Z,84.45
2022-12-13T00:33:50.486Z,85.33
2022-12-13T00:36:18.432Z,84.08
2022-12-13T00:38:46.013Z,83.05
2022-12-13T00:41:15.204Z,81.06
2022-12-13T00:43:43.057Z,82.31
2022-12-13T00:46:15.708Z,84.95
2022-12-13T00:48:43.652Z,83.14
2022-12-13T00:51:12.532Z,82.75
2022-12-13T00:53:40.219Z,82.79
2022-12-13T00:56:12.246Z,82.40
2022-12-13T00:58:39.993Z,83.30
2022-12-13T01:01:09.330Z,84.51
2022-12-13T01:03:39.225Z,84.13
2022-12-13T01:06:15.299Z,83.63
2022-12-13T01:08:44.130Z,82.94
2022-12-13T01:11:12.332Z,83.42
2022-12-13T01:13:40.319Z,84.79
2022-12-13T01:16:10.625Z,85.96
2022-12-13T01:18:42.383Z,85.78
2022-12-13T01:21:14.775Z,85.26
2022-12-13T01:23:42.789Z,83.34
2022-12-13T01:26:12.324Z,83.47
2022-12-13T01:28:40.010Z,82.29
2022-12-13T01:31:09.082Z,82.01
2022-12-13T01:33:36.926Z,81.18
2022-12-13T01:36:08.541Z,81.19
2022-12-13T01:38:37.817Z,83.28
2022-12-13T01:41:17.850Z,84.48
2022-12-13T01:43:55.875Z,83.53
2022-12-13T01:46:23.589Z,81.79
2022-12-13T01:48:56.334Z,81.74
2022-12-13T01:51:29.030Z,82.42
2022-12-13T01:54:00.763Z,82.27
2022-12-13T01:56:32.834Z,84.39
2022-12-13T01:59:02.978Z,84.62
2022-12-13T02:01:30.778Z,84.18
2022-12-13T02:03:58.279Z,83.34
2022-12-13T02:06:33.745Z,82.25
2022-12-13T02:09:02.430Z,81.60
2022-12-13T02:11:30.265Z,81.42
2022-12-13T02:13:57.782Z,81.52
2022-12-13T02:16:39.423Z,81.93
2022-12-13T02:19:39.458Z,82.29
2022-12-13T02:22:23.652Z,82.70
2022-12-13T02:25:10.894Z,84.64
2022-12-13T02:28:00.711Z,83.64
2022-12-13T02:30:39.001Z,84.97
2022-12-13T02:33:26.479Z,84.78
2022-12-13T02:36:05.738Z,85.19
2022-12-13T02:38:40.258Z,84.10
2022-12-13T02:41:16.754Z,83.43
2022-12-13T02:43:49.601Z,82.86
2022-12-13T02:46:24.314Z,84.59
2022-12-13T02:48:55.819Z,85.02
2022-12-13T02:51:24.800Z,85.23
2022-12-13T02:53:52.304Z,82.82
2022-12-13T02:56:20.472Z,83.08
2022-12-13T02:58:50.670Z,84.94
2022-12-13T03:01:40.022Z,83.52
2022-12-13T03:04:14.109Z,82.90
2022-12-13T03:06:51.355Z,81.89
2022-12-13T03:09:29.901Z,82.28
2022-12-13T03:12:29.050Z,83.43
2022-12-13T03:15:04.369Z,85.54
2022-12-13T03:17:40.508Z,85.44
2022-12-13T03:20:22.522Z,87.60
2022-12-13T03:22:50.555Z,87.29
2022-12-13T03:25:31.614Z,87.74
2022-12-13T03:28:01.459Z,89.65
2022-12-13T03:30:31.476Z,89.81
2022-12-13T03:33:00.693Z,88.22
2022-12-13T03:35:34.681Z,86.93
2022-12-13T03:38:22.794Z,85.90
2022-12-13T03:40:52.950Z,86.41
2022-12-13T03:43:22.458Z,86.72
2022-12-13T03:45:50.748Z,90.32
2022-12-13T03:48:22.453Z,92.66
2022-12-13T03:50:50.808Z,97.08
2022-12-13T03:53:22.296Z,100.00
2022-12-13T03:56:00.995Z,100.00
2022-12-13T03:58:36.019Z,100.00
2022-12-13T04:01:06.470Z,100.00
2022-12-13T04:03:35.523Z,100.00
2022-12-13T04:06:03.070Z,100.00
2022-12-13T04:08:30.683Z,100.00
2022-12-13T04:10:58.284Z,100.00
2022-12-13T04:13:34.067Z,100.00
2022-12-13T04:16:01.797Z,100.00
2022-12-13T04:18:29.383Z,100.00
2022-12-13T04:20:58.331Z,100.00
2022-12-13T04:23:25.979Z,100.00
2022-12-13T04:25:53.690Z,100.00
2022-12-13T04:28:22.151Z,100.00
2022-12-13T04:30:52.964Z,100.00
2022-12-13T04:33:21.913Z,100.00
2022-12-13T04:35:49.690Z,100.00
2022-12-13T04:38:19.331Z,100.00
2022-12-13T04:40:47.029Z,99.52
2022-12-13T04:43:14.557Z,100.00
2022-12-13T04:45:42.193Z,100.00
2022-12-13T04:48:09.780Z,100.00
2022-12-13T04:50:37.339Z,100.00
2022-12-13T04:53:04.868Z,100.00
2022-12-13T04:55:33.759Z,100.00
2022-12-13T04:58:01.279Z,100.00
2022-12-13T05:00:28.838Z,100.00
2022-12-13T05:02:56.406Z,100.00
2022-12-13T05:05:23.985Z,100.00
2022-12-13T05:07:51.585Z,100.00
2022-12-13T05:10:34.160Z,100.00
2022-12-13T05:13:07.547Z,100.00
2022-12-13T05:15:35.431Z,100.00
2022-12-13T05:18:09.762Z,100.00
2022-12-13T05:20:38.962Z,100.00
2022-12-13T05:23:06.566Z,100.00
2022-12-13T05:25:35.131Z,100.00
2022-12-13T05:28:08.966Z,100.00
2022-12-13T05:30:51.480Z,100.00
2022-12-13T05:33:19.037Z,100.00
2022-12-13T05:35:47.203Z,100.00
2022-12-13T05:38:14.758Z,100.00
2022-12-13T05:40:42.413Z,100.00
2022-12-13T05:43:21.206Z,100.00
2022-12-13T05:45:51.284Z,100.00
2022-12-13T05:48:24.152Z,100.00
2022-12-13T05:50:52.584Z,100.00
2022-12-13T05:53:39.544Z,100.00
2022-12-13T05:56:07.815Z,100.00
2022-12-13T05:58:36.305Z,100.00
2022-12-13T06:01:10.853Z,100.00
2022-12-13T06:03:38.784Z,100.00
2022-12-13T06:06:08.518Z,100.00
2022-12-13T06:08:36.610Z,100.00
2022-12-13T06:11:11.533Z,100.00
2022-12-13T06:13:42.867Z,100.00
2022-12-13T06:16:22.887Z,100.00
2022-12-13T06:18:56.175Z,100.00
2022-12-13T06:21:33.373Z,100.00
2022-12-13T06:24:13.930Z,100.00
2022-12-13T06:26:41.470Z,100.00
2022-12-13T06:29:10.333Z,100.00
2022-12-13T06:31:39.196Z,100.00
2022-12-13T06:34:14.182Z,100.00
2022-12-13T06:36:43.129Z,100.00
2022-12-13T06:39:10.736Z,100.00
2022-12-13T06:41:38.297Z,100.00
2022-12-13T06:44:06.364Z,100.00
2022-12-13T06:46:34.050Z,100.00
2022-12-13T06:49:02.957Z,100.00
2022-12-13T06:51:33.074Z,100.00
2022-12-13T06:54:02.380Z,100.00
2022-12-13T06:56:30.645Z,100.00
2022-12-13T06:59:01.730Z,100.00
2022-12-13T07:01:37.355Z,100.00
2022-12-13T07:04:30.306Z,100.00
2022-12-13T07:06:56.466Z,100.00
2022-12-13T07:09:29.809Z,100.00
2022-12-13T07:11:57.401Z,100.00
2022-12-13T07:14:24.944Z,100.00
2022-12-13T07:16:55.481Z,100.00
2022-12-13T07:19:28.405Z,100.00
2022-12-13T07:22:05.496Z,98.19
2022-12-13T07:24:33.164Z,95.64
2022-12-13T07:27:00.685Z,94.35
2022-12-13T07:29:28.207Z,95.24
2022-12-13T07:32:01.172Z,98.13
2022-12-13T07:34:30.952Z,98.48
2022-12-13T07:36:58.612Z,97.06
2022-12-13T07:39:26.982Z,95.13
2022-12-13T07:41:55.702Z,93.98
2022-12-13T07:44:23.248Z,92.40
2022-12-13T07:46:50.783Z,92.05
2022-12-13T07:49:18.374Z,93.02
2022-12-13T07:51:47.388Z,93.79
2022-12-13T07:54:14.895Z,94.44
2022-12-13T07:56:42.443Z,93.50
2022-12-13T07:59:10.145Z,92.90
2022-12-13T08:01:37.814Z,92.66
2022-12-13T08:04:05.789Z,93.39
2022-12-13T08:06:36.058Z,97.01
2022-12-13T08:09:05.995Z,97.65
2022-12-13T08:11:33.761Z,94.16
2022-12-13T08:14:01.380Z,92.19
2022-12-13T08:16:29.931Z,95.99
2022-12-13T08:19:02.103Z,96.94
2022-12-13T08:24:23.196Z,100.00
2022-12-13T08:26:50.707Z,100.00
2022-12-13T08:29:22.840Z,100.00
2022-12-13T08:32:01.719Z,100.00
2022-12-13T08:34:29.495Z,100.00
2022-12-13T08:37:01.725Z,100.00
2022-12-13T08:39:34.088Z,100.00
2022-12-13T08:42:15.155Z,96.29
2022-12-13T08:44:45.298Z,96.19
2022-12-13T08:47:13.399Z,94.12
2022-12-13T08:49:53.163Z,97.14
2022-12-13T08:52:22.283Z,100.00
2022-12-13T08:54:51.400Z,100.00
2022-12-13T08:57:18.975Z,100.00
2022-12-13T08:59:46.491Z,100.00
2022-12-13T09:02:15.160Z,100.00
2022-12-13T09:04:42.941Z,100.00
2022-12-13T09:07:10.460Z,100.00
2022-12-13T09:09:38.162Z,100.00
2022-12-13T09:12:10.247Z,100.00
2022-12-13T09:14:45.605Z,100.00
2022-12-13T09:17:14.766Z,100.00
2022-12-13T09:19:58.047Z,100.00
2022-12-13T09:22:32.815Z,100.00
2022-12-13T09:25:02.781Z,100.00
2022-12-13T09:27:39.605Z,100.00
2022-12-13T09:30:12.078Z,100.00
2022-12-13T09:32:39.660Z,100.00
2022-12-13T09:35:07.769Z,100.00
2022-12-13T09:37:36.971Z,99.89
2022-12-13T09:40:16.268Z,100.00
2022-12-13T09:43:12.487Z,100.00
2022-12-13T09:45:47.947Z,100.00
2022-12-13T09:48:22.915Z,96.55
2022-12-13T09:51:15.884Z,93.54
2022-12-13T09:53:41.167Z,94.64
2022-12-13T09:56:13.324Z,91.10
2022-12-13T09:58:42.223Z,86.98
2022-12-13T10:01:12.960Z,86.39
2022-12-13T10:03:42.401Z,85.88
2022-12-13T10:06:22.721Z,84.08
2022-12-13T10:08:58.345Z,84.88
2022-12-13T10:11:32.144Z,86.31
2022-12-13T10:14:05.416Z,89.29
2022-12-13T10:16:44.629Z,91.72
2022-12-13T10:19:28.287Z,90.50
2022-12-13T10:22:01.321Z,89.47
2022-12-13T10:24:36.970Z,89.93
2022-12-13T10:27:13.835Z,92.93
2022-12-13T10:30:03.025Z,92.13
2022-12-13T10:32:37.753Z,93.15
2022-12-13T10:35:20.653Z,89.31
2022-12-13T10:37:48.246Z,84.13
2022-12-13T10:40:31.912Z,81.67
2022-12-13T10:43:13.997Z,90.08
2022-12-13T10:45:44.222Z,86.51
2022-12-13T10:48:21.714Z,84.56
2022-12-13T10:51:01.829Z,79.66
2022-12-13T10:53:32.827Z,81.63
2022-12-13T10:56:02.154Z,81.02
2022-12-13T10:58:38.912Z,80.88
2022-12-13T11:01:13.052Z,81.01
2022-12-13T11:03:40.682Z,76.76
2022-12-13T11:06:13.994Z,72.09
2022-12-13T11:08:41.578Z,67.66
2022-12-13T11:11:10.938Z,67.09
2022-12-13T11:13:41.948Z,76.04
2022-12-13T11:16:22.476Z,74.15
2022-12-13T11:18:54.285Z,71.17
2022-12-13T11:21:26.410Z,69.85
2022-12-13T11:23:55.672Z,69.63
2022-12-13T11:26:26.647Z,67.68
2022-12-13T11:29:18.667Z,71.92
2022-12-13T11:32:01.409Z,75.92
2022-12-13T11:34:40.601Z,76.66
2022-12-13T11:37:17.990Z,77.53
2022-12-13T11:39:51.649Z,78.80
2022-12-13T11:42:26.736Z,80.86
2022-12-13T11:45:02.406Z,77.18
2022-12-13T11:47:38.184Z,76.45
2022-12-13T11:50:20.504Z,76.36
2022-12-13T11:53:06.770Z,78.22
2022-12-13T11:55:39.933Z,79.10
2022-12-13T11:58:16.474Z,77.93
2022-12-13T12:00:50.064Z,76.26
2022-12-13T12:03:21.793Z,77.63
2022-12-13T12:05:56.168Z,78.64
2022-12-13T12:08:34.178Z,76.76
2022-12-13T12:11:08.411Z,78.12
2022-12-13T12:13:51.481Z,75.10
2022-12-13T12:16:30.055Z,76.31
2022-12-13T12:19:01.625Z,80.18
2022-12-13T12:22:12.181Z,80.31
2022-12-13T12:24:36.744Z,80.65
2022-12-13T12:27:22.467Z,82.38
2022-12-13T12:30:23.114Z,79.90
2022-12-13T12:32:54.997Z,78.29
2022-12-13T12:35:38.143Z,79.83
2022-12-13T12:38:31.998Z,78.61
2022-12-13T12:41:23.737Z,79.05
2022-12-13T12:44:01.746Z,79.03
2022-12-13T12:47:01.436Z,79.57
2022-12-13T12:49:52.696Z,79.89
2022-12-13T12:52:29.562Z,80.29
2022-12-13T12:55:03.990Z,79.32
2022-12-13T12:57:40.597Z,78.51
2022-12-13T13:00:12.897Z,75.47
2022-12-13T13:02:44.649Z,77.75
2022-12-13T13:05:19.625Z,79.72
2022-12-13T13:07:52.861Z,81.80
2022-12-13T13:10:26.643Z,83.49
2022-12-13T13:13:11.504Z,83.34
2022-12-13T13:15:56.773Z,82.39
2022-12-13T13:18:44.839Z,82.83
2022-12-13T13:21:50.036Z,82.27
2022-12-13T13:24:24.657Z,80.44
2022-12-13T13:26:55.096Z,78.32
2022-12-13T13:29:35.422Z,82.57
2022-12-13T13:32:06.773Z,82.37
2022-12-13T13:34:36.281Z,81.30
2022-12-13T13:37:04.711Z,79.08
2022-12-13T13:39:56.664Z,78.33
2022-12-13T13:42:25.559Z,81.28
2022-12-13T13:45:12.462Z,79.50
2022-12-13T13:47:44.480Z,79.49
2022-12-13T13:51:10.008Z,83.25
2022-12-13T13:54:07.601Z,85.96
2022-12-13T13:57:33.164Z,86.38
2022-12-13T14:00:20.416Z,86.54
2022-12-13T14:03:34.027Z,86.50
2022-12-13T14:06:42.421Z,87.13
2022-12-13T14:09:58.076Z,84.16
2022-12-13T14:13:00.952Z,82.28
2022-12-13T14:16:00.397Z,84.15
2022-12-13T14:19:01.199Z,80.23
2022-12-13T14:21:39.584Z,77.76
2022-12-13T14:24:29.182Z,78.19
2022-12-13T14:27:13.368Z,80.72
2022-12-13T14:29:48.169Z,81.55
2022-12-13T14:32:26.755Z,80.58
2022-12-13T14:34:56.166Z,80.43
2022-12-13T14:37:31.334Z,79.43
2022-12-13T14:40:00.195Z,77.66
2022-12-13T14:42:30.204Z,76.40
2022-12-13T14:45:14.203Z,76.79
2022-12-13T14:47:44.028Z,77.35
2022-12-13T14:50:17.861Z,77.17
2022-12-13T14:52:46.410Z,77.79
2022-12-13T14:55:24.943Z,77.95
2022-12-13T14:57:54.300Z,77.10
2022-12-13T15:00:25.635Z,78.40
2022-12-13T15:02:56.637Z,78.60
2022-12-13T15:05:28.403Z,78.94
2022-12-13T15:07:57.380Z,81.79
2022-12-13T15:10:40.614Z,83.96
2022-12-13T15:13:08.548Z,85.22
2022-12-13T15:15:38.175Z,87.55
2022-12-13T15:18:16.582Z,88.71
2022-12-13T15:20:44.174Z,92.75
2022-12-13T15:23:19.745Z,100.00
2022-12-13T15:25:50.634Z,96.58
2022-12-13T15:28:21.872Z,94.18
2022-12-13T15:30:50.319Z,91.97
2022-12-13T15:33:26.388Z,90.19
2022-12-13T15:36:08.804Z,90.26
2022-12-13T15:38:38.530Z,89.37
2022-12-13T15:41:06.334Z,87.54
2022-12-13T15:43:38.097Z,90.43
2022-12-13T15:46:07.897Z,89.88
2022-12-13T15:48:39.832Z,89.44
2022-12-13T15:51:12.863Z,88.95
2022-12-13T15:53:41.949Z,88.10
2022-12-13T15:56:32.313Z,89.16
2022-12-13T15:59:01.196Z,88.29
2022-12-13T16:01:31.325Z,88.99
2022-12-13T16:04:03.527Z,88.25
2022-12-13T16:06:33.690Z,90.44
2022-12-13T16:09:03.860Z,90.87
2022-12-13T16:11:34.494Z,90.68
2022-12-13T16:14:27.205Z,91.16
2022-12-13T16:16:55.147Z,90.29
2022-12-13T16:19:24.092Z,91.16
2022-12-13T16:21:51.612Z,90.31
2022-12-13T16:24:19.200Z,90.50
2022-12-13T16:26:48.102Z,90.35
2022-12-13T16:29:19.303Z,91.84
2022-12-13T16:31:47.334Z,90.12
2022-12-13T16:34:17.404Z,90.96
2022-12-13T16:36:47.654Z,89.20
2022-12-13T16:39:15.622Z,87.42
2022-12-13T16:41:45.744Z,88.25
2022-12-13T16:44:22.671Z,88.01
2022-12-13T16:47:11.732Z,89.27
2022-12-13T16:49:38.502Z,88.48
2022-12-13T16:52:07.684Z,88.99
2022-12-13T16:54:35.536Z,89.22
2022-12-13T16:57:03.072Z,88.60
2022-12-13T16:59:30.616Z,87.58
2022-12-13T17:01:58.635Z,88.95
2022-12-13T17:04:27.377Z,88.73
2022-12-13T17:06:55.555Z,89.39
2022-12-13T17:09:25.561Z,89.03
2022-12-13T17:11:53.351Z,89.57
2022-12-13T17:14:20.868Z,92.26
2022-12-13T17:16:48.431Z,94.47
2022-12-13T17:19:17.366Z,94.37
2022-12-13T17:21:44.934Z,100.00
2022-12-13T17:24:12.516Z,100.00
2022-12-13T17:26:54.874Z,100.00
2022-12-13T17:29:23.156Z,100.00
2022-12-13T17:31:50.680Z,100.00
2022-12-13T17:34:18.196Z,100.00
2022-12-13T17:36:45.936Z,100.00
2022-12-13T17:39:13.512Z,100.00
2022-12-13T17:41:42.432Z,100.00
2022-12-13T17:44:22.129Z,100.00
2022-12-13T17:46:54.924Z,100.00
2022-12-13T17:49:23.288Z,100.00
2022-12-13T17:51:52.699Z,100.00
2022-12-13T17:54:20.563Z,100.00
2022-12-13T17:56:49.438Z,100.00
2022-12-13T17:59:17.557Z,100.00
2022-12-13T18:01:45.482Z,100.00
2022-12-13T18:04:13.508Z,98.24
2022-12-13T18:06:41.687Z,92.96
2022-12-13T18:09:09.890Z,92.42
2022-12-13T18:11:37.460Z,89.58
2022-12-13T18:14:08.246Z,89.34
2022-12-13T18:16:38.332Z,87.42
2022-12-13T18:19:07.836Z,87.00
2022-12-13T18:21:36.749Z,86.83
2022-12-13T18:24:05.589Z,85.25
2022-12-13T18:26:33.503Z,86.63
2022-12-13T18:29:01.003Z,87.58
2022-12-13T18:31:29.978Z,88.25
2022-12-13T18:33:57.662Z,96.55
2022-12-13T18:36:26.543Z,100.00
2022-12-13T18:38:54.209Z,100.00
2022-12-13T18:41:23.537Z,100.00
2022-12-13T18:43:55.857Z,100.00
2022-12-13T18:46:26.983Z,100.00
2022-12-13T18:48:56.615Z,100.00
2022-12-13T18:51:24.785Z,100.00
2022-12-13T18:53:53.097Z,100.00
2022-12-13T18:56:20.766Z,100.00
2022-12-13T18:58:49.067Z,100.00
2022-12-13T19:01:17.404Z,98.47
2022-12-13T19:03:46.803Z,100.00
2022-12-13T19:06:18.113Z,99.79
2022-12-13T19:08:48.316Z,95.30
2022-12-13T19:11:15.871Z,93.52
2022-12-13T19:13:43.419Z,91.18
2022-12-13T19:16:14.317Z,90.79
2022-12-13T19:18:42.305Z,90.32
2022-12-13T19:21:12.940Z,95.05
2022-12-13T19:23:42.715Z,100.00
2022-12-13T19:26:12.071Z,100.00
2022-12-13T19:28:41.309Z,100.00
2022-12-13T19:31:10.025Z,100.00
2022-12-13T19:33:37.821Z,100.00
2022-12-13T19:36:06.299Z,100.00
2022-12-13T19:38:33.882Z,96.03
2022-12-13T19:41:07.561Z,97.14
2022-12-13T19:43:35.215Z,100.00
2022-12-13T19:46:02.934Z,98.76
2022-12-13T19:48:30.526Z,96.72
2022-12-13T19:50:59.996Z,94.16
2022-12-13T19:53:28.147Z,94.62
2022-12-13T19:55:56.158Z,96.58
2022-12-13T19:58:25.734Z,96.80
2022-12-13T20:00:53.719Z,97.55
2022-12-13T20:03:21.309Z,94.34
2022-12-13T20:05:58.160Z,94.09
2022-12-13T20:08:26.174Z,100.00
2022-12-13T20:10:58.405Z,100.00
2022-12-13T20:13:28.205Z,100.00
2022-12-13T20:15:56.170Z,100.00
2022-12-13T20:18:24.143Z,100.00
2022-12-13T20:21:11.213Z,100.00
2022-12-13T20:23:39.381Z,99.51
2022-12-13T20:26:09.533Z,95.94
2022-12-13T20:28:38.467Z,96.04
2022-12-13T20:31:07.240Z,92.69
2022-12-13T20:33:35.092Z,90.73
2022-12-13T20:36:23.756Z,89.46
2022-12-13T20:38:51.504Z,91.01
2022-12-13T20:41:19.194Z,93.34
2022-12-13T20:43:51.544Z,95.45
2022-12-13T20:46:19.175Z,100.00
2022-12-13T20:48:48.556Z,100.00
2022-12-13T20:51:17.581Z,100.00
2022-12-13T20:53:46.783Z,100.00
2022-12-13T20:56:16.884Z,100.00
2022-12-13T20:58:45.415Z,100.00
2022-12-13T21:01:18.108Z,100.00
2022-12-13T21:03:46.515Z,98.88
2022-12-13T21:06:14.648Z,95.46
2022-12-13T21:08:55.170Z,99.44
2022-12-13T21:11:28.671Z,97.53
2022-12-13T21:14:02.453Z,94.94
2022-12-13T21:16:38.666Z,93.98
2022-12-13T21:19:06.806Z,90.44
2022-12-13T21:21:34.625Z,90.21
2022-12-13T21:24:03.141Z,93.04
2022-12-13T21:26:35.366Z,92.10
2022-12-13T21:29:05.229Z,93.47
2022-12-13T21:31:33.067Z,95.29
2022-12-13T21:34:03.146Z,97.18
2022-12-13T21:36:31.954Z,100.00
2022-12-13T21:39:01.579Z,100.00
2022-12-13T21:41:29.998Z,100.00
2022-12-13T21:43:57.688Z,100.00
2022-12-13T21:46:41.377Z,100.00
2022-12-13T21:49:17.149Z,100.00
2022-12-13T21:51:47.854Z,100.00
2022-12-13T21:54:16.026Z,100.00
2022-12-13T21:57:01.186Z,100.00
2022-12-13T21:59:29.578Z,100.00
2022-12-13T22:02:15.613Z,100.00
2022-12-13T22:04:46.418Z,99.11
2022-12-13T22:07:16.417Z,100.00
2022-12-13T22:09:44.176Z,100.00
2022-12-13T22:12:19.624Z,100.00
2022-12-13T22:14:47.263Z,100.00
2022-12-13T22:17:14.891Z,100.00
2022-12-13T22:19:42.459Z,100.00
2022-12-13T22:22:11.661Z,100.00
2022-12-13T22:24:39.183Z,100.00
2022-12-13T22:27:07.051Z,100.00
2022-12-13T22:29:34.586Z,97.56
2022-12-13T22:32:02.171Z,100.00
2022-12-13T22:34:29.771Z,100.00
2022-12-13T22:36:57.415Z,100.00
2022-12-13T22:39:26.300Z,100.00
2022-12-13T22:41:53.846Z,100.00
2022-12-13T22:44:21.745Z,100.00
2022-12-13T22:46:49.382Z,99.22
2022-12-13T22:49:16.964Z,95.09
2022-12-13T22:51:44.814Z,93.34
2022-12-13T22:54:12.396Z,98.57
2022-12-13T22:56:41.289Z,100.00
2022-12-13T22:59:08.893Z,99.29
2022-12-13T23:01:38.764Z,100.00
2022-12-13T23:04:07.335Z,100.00
2022-12-13T23:06:37.437Z,100.00
2022-12-13T23:09:07.796Z,100.00
2022-12-13T23:11:53.080Z,100.00
2022-12-13T23:14:31.155Z,100.00
2022-12-13T23:16:59.252Z,100.00
2022-12-13T23:19:49.723Z,100.00
2022-12-13T23:22:15.367Z,100.00
2022-12-13T23:24:42.875Z,100.00
2022-12-13T23:27:10.404Z,100.00
2022-12-13T23:29:39.487Z,100.00
2022-12-13T23:32:07.025Z,100.00
2022-12-13T23:34:34.670Z,100.00
2022-12-13T23:37:02.181Z,100.00
2022-12-13T23:39:29.739Z,100.00
2022-12-13T23:41:57.284Z,100.00
2022-12-13T23:44:25.015Z,100.00
2022-12-13T23:46:53.917Z,100.00
2022-12-13T23:49:21.453Z,100.00
2022-12-13T23:51:48.965Z,100.00
2022-12-13T23:54:19.307Z,100.00
2022-12-13T23:56:46.895Z,100.00
2022-12-13T23:59:14.479Z,99.75
